createdAt,value
2018-03-30T00:01:39.858Z,1.42
2018-03-30T00:04:42.281Z,1.47
2018-03-30T00:07:44.688Z,1.63
2018-03-30T00:10:47.099Z,2.07
2018-03-30T00:13:49.621Z,2.02
2018-03-30T00:16:52.001Z,1.98
2018-03-30T00:19:54.433Z,1.98
2018-03-30T00:22:56.896Z,2.03
2018-03-30T00:25:59.297Z,2.15
2018-03-30T00:29:01.773Z,2.37
2018-03-30T00:32:04.156Z,2.43
2018-03-30T00:35:06.581Z,2.58
2018-03-30T00:38:08.991Z,2.59
2018-03-30T00:41:11.456Z,2.71
2018-03-30T00:44:13.876Z,2.72
2018-03-30T00:47:16.260Z,2.94
2018-03-30T00:50:18.697Z,3.09
2018-03-30T00:53:21.103Z,3.12
2018-03-30T00:56:23.558Z,3.13
2018-03-30T00:59:26.025Z,3.12
2018-03-30T01:02:28.421Z,3.18
2018-03-30T01:05:30.856Z,3.18
2018-03-30T01:08:33.234Z,3.16
2018-03-30T01:11:35.657Z,3.15
2018-03-30T01:14:38.089Z,3.12
2018-03-30T01:17:40.509Z,3.02
2018-03-30T01:20:42.922Z,3.02
2018-03-30T01:23:45.332Z,3.08
2018-03-30T01:26:47.769Z,2.91
2018-03-30T01:29:50.137Z,2.88
2018-03-30T01:32:52.562Z,2.81
2018-03-30T01:35:55.008Z,2.79
2018-03-30T01:38:57.459Z,2.72
2018-03-30T01:41:59.849Z,2.78
2018-03-30T01:45:02.359Z,2.81
2018-03-30T01:48:04.789Z,2.84
2018-03-30T01:51:07.156Z,2.90
2018-03-30T01:54:09.565Z,2.91
2018-03-30T01:57:12.055Z,2.86
2018-03-30T02:00:14.478Z,2.82
2018-03-30T02:03:16.891Z,2.94
2018-03-30T02:06:19.297Z,2.98
2018-03-30T02:09:21.666Z,3.01
2018-03-30T02:12:24.143Z,3.04
2018-03-30T02:15:26.593Z,3.13
2018-03-30T02:18:29.017Z,3.25
2018-03-30T02:21:31.455Z,3.23
2018-03-30T02:24:33.854Z,3.29
2018-03-30T02:27:36.273Z,3.16
2018-03-30T02:30:38.694Z,3.04
2018-03-30T02:33:41.137Z,3.30
2018-03-30T02:36:43.624Z,3.33
2018-03-30T02:39:46.189Z,3.28
2018-03-30T02:42:48.610Z,3.23
2018-03-30T02:45:51.044Z,3.25
2018-03-30T02:48:53.418Z,3.12
2018-03-30T02:51:55.829Z,3.13
2018-03-30T02:54:58.258Z,3.15
2018-03-30T02:58:00.745Z,3.09
2018-03-30T03:01:03.206Z,3.01
2018-03-30T03:04:05.602Z,3.16
2018-03-30T03:07:08.044Z,3.16
2018-03-30T03:10:10.430Z,3.20
2018-03-30T03:13:12.851Z,3.20
2018-03-30T03:16:15.311Z,3.12
2018-03-30T03:19:17.710Z,3.04
2018-03-30T03:22:20.115Z,3.10
2018-03-30T03:25:22.536Z,3.23
2018-03-30T03:28:24.965Z,3.32
2018-03-30T03:31:27.353Z,3.14
2018-03-30T03:34:29.870Z,3.28
2018-03-30T03:37:32.314Z,3.46
2018-03-30T03:40:34.688Z,3.36
2018-03-30T03:43:37.107Z,3.36
2018-03-30T03:46:39.491Z,3.41
2018-03-30T03:49:41.938Z,3.43
2018-03-30T03:52:44.346Z,3.29
2018-03-30T03:55:46.763Z,3.33
2018-03-30T03:58:49.191Z,3.50
2018-03-30T04:01:51.618Z,3.40
2018-03-30T04:04:54.019Z,3.38
2018-03-30T04:07:56.436Z,3.38
2018-03-30T04:10:58.942Z,3.43
2018-03-30T04:14:01.370Z,3.49
2018-03-30T04:17:03.791Z,3.46
2018-03-30T04:20:06.195Z,3.43
2018-03-30T04:23:08.621Z,3.47
2018-03-30T04:26:11.041Z,3.74
2018-03-30T04:29:13.463Z,3.69
2018-03-30T04:32:15.850Z,3.76
2018-03-30T04:35:18.248Z,3.78
2018-03-30T04:38:20.658Z,3.90
2018-03-30T04:41:23.075Z,3.88
2018-03-30T04:44:25.482Z,3.94
2018-03-30T04:47:27.997Z,4.00
2018-03-30T04:50:30.419Z,3.97
2018-03-30T04:53:32.871Z,3.98
2018-03-30T04:56:35.246Z,3.93
2018-03-30T04:59:37.644Z,3.88
2018-03-30T05:02:40.022Z,3.87
2018-03-30T05:05:42.558Z,3.94
2018-03-30T05:08:44.924Z,3.99
2018-03-30T05:11:47.329Z,3.94
2018-03-30T05:14:49.824Z,3.91
2018-03-30T05:17:52.265Z,3.92
2018-03-30T05:20:54.680Z,3.94
2018-03-30T05:23:57.063Z,3.98
2018-03-30T05:26:59.613Z,3.90
2018-03-30T05:30:02.062Z,3.85
2018-03-30T05:33:04.586Z,3.90
2018-03-30T05:36:07.156Z,3.87
2018-03-30T05:39:09.609Z,3.93
2018-03-30T05:42:12.086Z,3.99
2018-03-30T05:45:14.507Z,4.05
2018-03-30T05:48:17.101Z,4.17
2018-03-30T05:51:19.619Z,4.17
2018-03-30T05:54:22.096Z,4.16
2018-03-30T05:57:24.789Z,4.18
2018-03-30T06:00:27.364Z,4.32
2018-03-30T06:03:29.899Z,4.30
2018-03-30T06:06:32.382Z,4.30
2018-03-30T06:09:34.946Z,4.24
2018-03-30T06:12:37.403Z,4.37
2018-03-30T06:15:39.870Z,4.56
2018-03-30T06:18:42.489Z,4.59
2018-03-30T06:21:45.086Z,4.45
2018-03-30T06:24:47.591Z,4.46
2018-03-30T06:27:50.106Z,4.51
2018-03-30T06:30:52.611Z,4.58
2018-03-30T06:33:55.076Z,4.72
2018-03-30T06:36:57.611Z,4.77
2018-03-30T06:40:00.113Z,4.83
2018-03-30T06:43:02.695Z,4.76
2018-03-30T06:46:05.195Z,4.79
2018-03-30T06:49:07.703Z,4.74
2018-03-30T06:52:10.212Z,4.68
2018-03-30T06:55:12.801Z,4.75
2018-03-30T06:58:15.338Z,4.74
2018-03-30T07:01:18.129Z,4.81
2018-03-30T07:07:39.341Z,4.79
2018-03-30T07:10:41.808Z,4.96
2018-03-30T07:13:44.338Z,5.08
2018-03-30T07:16:46.823Z,5.00
2018-03-30T07:19:49.341Z,5.20
2018-03-30T07:22:51.821Z,5.27
2018-03-30T07:25:54.317Z,5.36
2018-03-30T07:28:56.801Z,5.41
2018-03-30T07:31:59.268Z,5.36
2018-03-30T07:35:01.762Z,5.57
2018-03-30T07:38:04.296Z,5.52
2018-03-30T07:41:06.766Z,5.42
2018-03-30T07:44:09.269Z,5.76
2018-03-30T07:47:11.784Z,5.98
2018-03-30T07:50:14.337Z,6.02
2018-03-30T07:53:16.864Z,6.11
2018-03-30T07:56:19.337Z,6.04
2018-03-30T07:59:21.838Z,6.44
2018-03-30T08:02:24.357Z,6.41
2018-03-30T08:05:26.809Z,6.50
2018-03-30T08:08:29.346Z,7.03
2018-03-30T08:11:31.805Z,7.38
2018-03-30T08:14:34.337Z,7.22
2018-03-30T08:17:36.820Z,7.46
2018-03-30T08:20:39.349Z,7.55
2018-03-30T08:23:41.853Z,7.46
2018-03-30T08:26:44.368Z,7.34
2018-03-30T08:29:46.849Z,7.23
2018-03-30T08:32:49.377Z,7.41
2018-03-30T08:35:51.968Z,7.63
2018-03-30T08:38:54.442Z,7.86
2018-03-30T08:41:56.997Z,7.97
2018-03-30T08:44:59.559Z,8.02
2018-03-30T08:48:02.095Z,8.09
2018-03-30T08:51:04.566Z,8.43
2018-03-30T08:54:07.077Z,8.38
2018-03-30T08:57:09.587Z,8.47
2018-03-30T09:00:12.169Z,8.26
2018-03-30T09:03:14.673Z,8.30
2018-03-30T09:06:17.293Z,8.35
2018-03-30T09:09:19.758Z,8.34
2018-03-30T09:12:22.273Z,8.57
2018-03-30T09:15:24.788Z,8.83
2018-03-30T09:18:27.303Z,8.79
2018-03-30T09:21:29.844Z,8.82
2018-03-30T09:24:32.401Z,8.81
2018-03-30T09:27:34.878Z,8.82
2018-03-30T09:30:37.388Z,8.87
2018-03-30T09:33:39.889Z,9.10
2018-03-30T09:36:42.385Z,9.10
2018-03-30T09:39:44.901Z,9.09
2018-03-30T09:42:47.412Z,9.29
2018-03-30T09:45:49.920Z,9.34
2018-03-30T09:48:52.403Z,9.34
2018-03-30T09:51:54.889Z,9.39
2018-03-30T09:54:57.375Z,9.56
2018-03-30T09:57:59.884Z,9.67
2018-03-30T10:01:02.359Z,9.54
2018-03-30T10:04:14.791Z,9.74
2018-03-30T10:07:17.274Z,9.86
2018-03-30T10:10:19.816Z,9.91
2018-03-30T10:13:22.368Z,9.95
2018-03-30T10:16:24.939Z,9.93
2018-03-30T10:19:27.445Z,10.08
2018-03-30T10:22:29.934Z,9.96
2018-03-30T10:25:32.485Z,10.09
2018-03-30T10:28:35.004Z,10.18
2018-03-30T10:31:37.465Z,10.09
2018-03-30T10:34:39.967Z,10.10
2018-03-30T10:37:42.500Z,10.23
2018-03-30T10:40:44.993Z,10.06
2018-03-30T10:43:47.616Z,10.10
2018-03-30T10:46:50.155Z,10.28
2018-03-30T10:49:52.824Z,10.21
2018-03-30T10:52:55.386Z,10.21
2018-03-30T10:55:57.953Z,10.28
2018-03-30T10:59:00.473Z,10.48
2018-03-30T11:02:02.999Z,10.48
2018-03-30T11:05:05.549Z,10.56
2018-03-30T11:08:08.058Z,10.58
2018-03-30T11:11:10.568Z,10.70
2018-03-30T11:14:13.074Z,10.87
2018-03-30T11:17:15.595Z,10.90
2018-03-30T11:20:18.145Z,10.97
2018-03-30T11:23:20.668Z,11.28
2018-03-30T11:26:23.194Z,11.33
2018-03-30T11:29:25.729Z,11.41
2018-03-30T11:32:28.294Z,11.56
2018-03-30T11:35:30.821Z,11.42
2018-03-30T11:38:33.318Z,11.26
2018-03-30T11:41:35.892Z,11.41
2018-03-30T11:44:38.487Z,11.41
2018-03-30T11:47:41.005Z,11.40
2018-03-30T11:50:43.604Z,11.63
2018-03-30T11:53:46.099Z,11.54
2018-03-30T11:56:48.634Z,11.57
2018-03-30T11:59:51.154Z,11.57
2018-03-30T12:02:53.719Z,11.72
2018-03-30T12:05:56.265Z,11.57
2018-03-30T12:08:58.741Z,11.87
2018-03-30T12:12:01.274Z,12.06
2018-03-30T12:15:03.731Z,12.00
2018-03-30T12:18:06.280Z,11.77
2018-03-30T12:21:08.781Z,11.51
2018-03-30T12:24:11.266Z,11.73
2018-03-30T12:27:13.758Z,12.01
2018-03-30T12:30:16.264Z,11.99
2018-03-30T12:33:18.757Z,11.92
2018-03-30T12:36:21.406Z,12.01
2018-03-30T12:39:23.937Z,12.05
2018-03-30T12:42:26.522Z,12.06
2018-03-30T12:45:29.030Z,11.92
2018-03-30T12:48:31.501Z,11.84
2018-03-30T12:51:34.030Z,11.91
2018-03-30T12:54:36.571Z,12.06
2018-03-30T12:57:39.139Z,11.85
2018-03-30T13:00:41.731Z,11.85
2018-03-30T13:03:44.241Z,11.96
2018-03-30T13:06:47.504Z,12.00
2018-03-30T13:09:49.981Z,12.06
2018-03-30T13:12:52.511Z,11.86
2018-03-30T13:15:54.991Z,11.92
2018-03-30T13:18:57.510Z,12.03
2018-03-30T13:21:59.976Z,11.89
2018-03-30T13:25:02.832Z,12.00
2018-03-30T13:28:05.375Z,11.93
2018-03-30T13:31:07.944Z,11.88
2018-03-30T13:34:10.471Z,11.75
2018-03-30T13:37:12.993Z,11.91
2018-03-30T13:40:15.623Z,11.86
2018-03-30T13:43:18.182Z,12.21
2018-03-30T13:46:21.431Z,12.15
2018-03-30T13:49:24.036Z,12.03
2018-03-30T13:52:42.127Z,12.15
2018-03-30T13:55:45.569Z,12.23
2018-03-30T13:58:50.863Z,12.15
2018-03-30T14:02:05.256Z,12.17
2018-03-30T14:08:55.743Z,12.02
2018-03-30T14:12:07.639Z,12.28
2018-03-30T14:15:12.937Z,12.10
2018-03-30T14:18:16.122Z,12.04
2018-03-30T14:21:19.326Z,12.12
2018-03-30T14:24:22.727Z,12.19
2018-03-30T14:27:44.897Z,12.34
2018-03-30T14:30:51.237Z,12.35
2018-03-30T14:33:53.722Z,12.26
2018-03-30T14:37:03.772Z,12.18
2018-03-30T14:40:21.783Z,12.36
2018-03-30T14:43:37.503Z,12.42
2018-03-30T14:46:52.478Z,12.34
2018-03-30T14:50:01.812Z,12.20
2018-03-30T14:53:05.984Z,12.45
2018-03-30T14:56:15.331Z,12.37
2018-03-30T14:59:22.677Z,12.40
2018-03-30T15:02:32.866Z,12.44
2018-03-30T15:09:34.242Z,11.99
2018-03-30T15:12:39.299Z,12.21
2018-03-30T15:15:58.577Z,12.01
2018-03-30T15:19:07.583Z,12.06
2018-03-30T15:22:10.147Z,12.14
2018-03-30T15:25:22.229Z,12.05
2018-03-30T15:28:24.794Z,12.06
2018-03-30T15:31:34.210Z,11.89
2018-03-30T15:34:37.327Z,12.02
2018-03-30T15:37:40.112Z,12.11
2018-03-30T15:40:42.544Z,11.99
2018-03-30T15:43:46.533Z,11.96
2018-03-30T15:47:03.831Z,12.10
2018-03-30T15:50:06.406Z,11.97
2018-03-30T15:53:17.442Z,11.96
2018-03-30T15:56:20.001Z,11.83
2018-03-30T15:59:22.458Z,11.84
2018-03-30T16:02:25.014Z,11.86
2018-03-30T16:05:27.593Z,11.83
2018-03-30T16:08:30.149Z,11.64
2018-03-30T16:11:36.345Z,11.56
2018-03-30T16:14:38.827Z,11.69
2018-03-30T16:17:41.407Z,11.82
2018-03-30T16:20:43.338Z,11.61
2018-03-30T16:23:45.405Z,11.47
2018-03-30T16:26:47.362Z,11.39
2018-03-30T16:29:49.299Z,11.52
2018-03-30T16:32:51.204Z,11.37
2018-03-30T16:35:53.204Z,11.46
2018-03-30T16:38:55.095Z,11.38
2018-03-30T16:41:57.030Z,11.40
2018-03-30T16:44:58.992Z,11.23
2018-03-30T16:48:00.938Z,11.20
2018-03-30T16:51:02.840Z,11.16
2018-03-30T16:54:04.895Z,11.13
2018-03-30T16:57:07.969Z,10.98
2018-03-30T17:00:09.934Z,10.94
2018-03-30T17:03:11.968Z,10.84
2018-03-30T17:06:13.925Z,10.71
2018-03-30T17:09:15.864Z,10.62
2018-03-30T17:12:17.922Z,10.57
2018-03-30T17:15:20.221Z,10.46
2018-03-30T17:18:22.209Z,10.33
2018-03-30T17:21:24.154Z,10.28
2018-03-30T17:24:26.096Z,10.21
2018-03-30T17:27:28.171Z,10.22
2018-03-30T17:30:30.092Z,10.20
2018-03-30T17:33:32.068Z,10.11
2018-03-30T17:36:34.003Z,9.92
2018-03-30T17:39:35.974Z,9.79
2018-03-30T17:42:38.025Z,9.62
2018-03-30T17:45:39.971Z,9.52
2018-03-30T17:48:41.895Z,9.51
2018-03-30T17:51:43.823Z,9.41
2018-03-30T17:54:45.775Z,9.20
2018-03-30T17:57:47.880Z,9.15
2018-03-30T18:00:49.784Z,9.17
2018-03-30T18:03:51.722Z,9.07
2018-03-30T18:06:53.726Z,8.97
2018-03-30T18:09:55.646Z,9.01
2018-03-30T18:12:57.603Z,8.93
2018-03-30T18:15:59.520Z,8.92
2018-03-30T18:19:01.453Z,8.90
2018-03-30T18:22:03.404Z,9.05
2018-03-30T18:25:05.351Z,9.05
2018-03-30T18:28:07.297Z,9.12
2018-03-30T18:31:09.319Z,9.07
2018-03-30T18:34:11.276Z,9.16
2018-03-30T18:37:13.305Z,9.19
2018-03-30T18:40:15.275Z,9.14
2018-03-30T18:43:17.160Z,9.09
2018-03-30T18:46:19.115Z,9.05
2018-03-30T18:49:21.084Z,8.96
2018-03-30T18:52:23.020Z,9.01
2018-03-30T18:55:24.946Z,8.87
2018-03-30T18:58:26.927Z,8.81
2018-03-30T19:01:28.866Z,8.70
2018-03-30T19:04:30.836Z,8.64
2018-03-30T19:07:32.781Z,8.53
2018-03-30T19:10:34.851Z,8.43
2018-03-30T19:13:36.904Z,8.34
2018-03-30T19:16:38.849Z,8.32
2018-03-30T19:19:40.803Z,8.15
2018-03-30T19:22:42.846Z,8.02
2018-03-30T19:25:44.894Z,7.96
2018-03-30T19:28:46.789Z,8.00
2018-03-30T19:31:48.790Z,7.98
2018-03-30T19:34:50.744Z,7.92
2018-03-30T19:37:52.824Z,7.89
2018-03-30T19:40:54.771Z,7.97
2018-03-30T19:43:56.742Z,7.92
2018-03-30T19:46:58.739Z,7.89
2018-03-30T19:50:00.787Z,8.01
2018-03-30T19:53:02.739Z,7.94
2018-03-30T19:56:04.797Z,7.87
2018-03-30T19:59:06.767Z,7.78
2018-03-30T20:02:08.697Z,7.74
2018-03-30T20:05:10.652Z,7.71
2018-03-30T20:08:12.624Z,7.65
2018-03-30T20:11:14.658Z,7.56
2018-03-30T20:14:16.692Z,7.56
2018-03-30T20:17:18.741Z,7.54
2018-03-30T20:20:20.685Z,7.43
2018-03-30T20:23:22.626Z,7.40
2018-03-30T20:26:24.581Z,7.33
2018-03-30T20:29:26.535Z,7.18
2018-03-30T20:32:28.536Z,7.09
2018-03-30T20:35:30.477Z,6.96
2018-03-30T20:38:32.418Z,7.04
2018-03-30T20:41:34.341Z,7.12
2018-03-30T20:44:36.300Z,7.08
2018-03-30T20:47:38.218Z,7.05
2018-03-30T20:50:40.287Z,7.07
2018-03-30T20:53:42.201Z,7.09
2018-03-30T20:56:44.177Z,7.10
2018-03-30T20:59:46.223Z,7.17
2018-03-30T21:02:48.165Z,7.14
2018-03-30T21:05:50.102Z,7.23
2018-03-30T21:08:52.040Z,7.22
2018-03-30T21:11:53.977Z,7.13
2018-03-30T21:14:55.932Z,7.13
2018-03-30T21:17:57.926Z,7.22
2018-03-30T21:20:59.969Z,7.28
2018-03-30T21:24:01.877Z,7.35
2018-03-30T21:27:03.805Z,7.38
2018-03-30T21:30:05.765Z,7.32
2018-03-30T21:33:07.724Z,7.30
2018-03-30T21:36:09.628Z,7.29
2018-03-30T21:39:11.548Z,7.27
2018-03-30T21:42:13.503Z,7.41
2018-03-30T21:45:15.567Z,7.47
2018-03-30T21:48:17.504Z,7.43
2018-03-30T21:51:19.456Z,7.37
2018-03-30T21:54:21.504Z,7.42
2018-03-30T21:57:23.482Z,7.48
2018-03-30T22:00:26.308Z,7.49
2018-03-30T22:03:28.288Z,7.52
2018-03-30T22:06:30.231Z,7.56
2018-03-30T22:09:32.176Z,7.53
2018-03-30T22:12:34.128Z,7.54
2018-03-30T22:15:36.068Z,7.57
2018-03-30T22:18:38.118Z,7.55
2018-03-30T22:21:40.068Z,7.63
2018-03-30T22:24:42.108Z,7.53
2018-03-30T22:27:44.109Z,7.54
2018-03-30T22:30:45.962Z,7.60
2018-03-30T22:33:48.193Z,7.59
2018-03-30T22:36:50.163Z,7.61
2018-03-30T22:39:52.203Z,7.60
2018-03-30T22:42:54.110Z,7.64
2018-03-30T22:45:56.096Z,7.58
2018-03-30T22:48:58.921Z,7.56
2018-03-30T22:52:00.887Z,7.55
2018-03-30T22:55:02.895Z,7.59
2018-03-30T22:58:04.797Z,7.59
2018-03-30T23:01:06.737Z,7.48
2018-03-30T23:04:08.636Z,7.44
2018-03-30T23:07:10.627Z,7.37
2018-03-30T23:10:12.571Z,7.25
2018-03-30T23:13:14.527Z,7.25
2018-03-30T23:16:16.479Z,7.27
2018-03-30T23:19:18.412Z,7.13
2018-03-30T23:22:20.375Z,7.19
2018-03-30T23:25:22.331Z,7.08
2018-03-30T23:28:24.307Z,7.18
2018-03-30T23:31:26.244Z,7.16
2018-03-30T23:34:28.155Z,7.16
2018-03-30T23:37:30.121Z,7.13
2018-03-30T23:40:32.033Z,7.17
2018-03-30T23:43:33.998Z,7.11
2018-03-30T23:46:35.893Z,7.18
2018-03-30T23:49:37.818Z,7.23
2018-03-30T23:52:39.761Z,7.28
2018-03-30T23:55:41.701Z,7.24
2018-03-30T23:58:44.884Z,7.31
